createdAt,value
2023-08-17T00:01:34.963Z,98026.19
2023-08-17T00:04:01.900Z,98018.19
2023-08-17T00:06:28.728Z,98013.50
2023-08-17T00:08:55.951Z,98010.59
2023-08-17T00:11:22.874Z,98012.41
2023-08-17T00:13:49.762Z,97999.03
2023-08-17T00:16:16.597Z,97996.63
2023-08-17T00:18:43.421Z,98001.56
2023-08-17T00:21:10.268Z,97994.31
2023-08-17T00:23:37.384Z,97990.09
2023-08-17T00:26:04.198Z,97986.50
2023-08-17T00:28:30.994Z,97988.59
2023-08-17T00:30:57.791Z,97984.91
2023-08-17T00:33:24.703Z,97983.19
2023-08-17T00:35:51.809Z,97979.03
2023-08-17T00:38:18.674Z,97985.53
2023-08-17T00:40:45.492Z,97981.34
2023-08-17T00:43:12.227Z,97979.66
2023-08-17T00:45:39.161Z,97986.78
2023-08-17T00:48:09.069Z,97986.63
2023-08-17T00:50:36.401Z,97988.06
2023-08-17T00:53:03.311Z,97987.81
2023-08-17T00:55:30.158Z,97985.88
2023-08-17T00:57:57.473Z,97986.66
2023-08-17T01:00:24.376Z,97997.38
2023-08-17T01:02:51.561Z,97997.38
2023-08-17T01:05:18.509Z,97991.28
2023-08-17T01:07:45.306Z,97994.22
2023-08-17T01:10:12.125Z,97983.31
2023-08-17T01:12:52.429Z,97985.78
2023-08-17T01:15:22.669Z,97975.94
2023-08-17T01:18:02.337Z,97969.13
2023-08-17T01:20:29.149Z,97970.09
2023-08-17T01:22:58.569Z,97977.34
2023-08-17T01:25:25.387Z,97975.56
2023-08-17T01:27:52.181Z,97982.19
2023-08-17T01:30:19.171Z,97992.03
2023-08-17T01:32:49.652Z,97977.28
2023-08-17T01:35:48.786Z,97985.25
2023-08-17T01:38:20.149Z,97984.81
2023-08-17T01:40:47.417Z,97992.38
2023-08-17T01:43:14.174Z,97984.97
2023-08-17T01:45:41.292Z,97990.69
2023-08-17T01:48:08.077Z,97987.63
2023-08-17T01:50:34.864Z,97984.97
2023-08-17T01:53:01.682Z,97981.47
2023-08-17T01:55:28.519Z,97984.38
2023-08-17T01:57:55.371Z,97980.25
2023-08-17T02:00:22.551Z,97986.59
2023-08-17T02:02:49.362Z,97994.78
2023-08-17T02:05:16.171Z,98017.41
2023-08-17T02:07:43.018Z,98031.78
2023-08-17T02:10:10.190Z,98029.34
2023-08-17T02:12:37.353Z,98027.28
2023-08-17T02:15:04.279Z,98033.59
2023-08-17T02:17:31.252Z,98031.72
2023-08-17T02:19:58.073Z,98030.06
2023-08-17T02:22:24.904Z,98037.41
2023-08-17T02:24:51.719Z,98024.94
2023-08-17T02:27:18.765Z,98031.06
2023-08-17T02:29:45.567Z,98032.91
2023-08-17T02:32:12.393Z,98034.13
2023-08-17T02:34:39.267Z,98030.91
2023-08-17T02:37:06.058Z,98024.78
2023-08-17T02:39:33.187Z,98020.50
2023-08-17T02:42:00.050Z,98022.53
2023-08-17T02:44:28.724Z,98024.22
2023-08-17T02:46:55.692Z,98015.97
2023-08-17T02:49:22.507Z,98011.09
2023-08-17T02:51:49.274Z,98010.78
2023-08-17T02:54:16.388Z,98019.88
2023-08-17T02:56:43.259Z,98011.63
2023-08-17T02:59:10.082Z,98016.94
2023-08-17T03:01:36.917Z,98017.06
2023-08-17T03:04:03.928Z,98014.78
2023-08-17T03:06:31.000Z,98021.66
2023-08-17T03:08:57.820Z,98023.34
2023-08-17T03:11:24.715Z,98021.81
2023-08-17T03:13:51.585Z,98024.72
2023-08-17T03:16:18.403Z,98019.34
2023-08-17T03:18:45.700Z,98026.22
2023-08-17T03:21:13.226Z,98028.22
2023-08-17T03:23:40.022Z,98023.63
2023-08-17T03:26:06.887Z,98031.25
2023-08-17T03:28:33.679Z,98034.25
2023-08-17T03:31:00.540Z,98042.00
2023-08-17T03:33:27.753Z,98047.28
2023-08-17T03:35:54.565Z,98051.75
2023-08-17T03:38:21.509Z,98060.72
2023-08-17T03:40:48.778Z,98059.03
2023-08-17T03:43:15.612Z,98060.47
2023-08-17T03:45:42.815Z,98057.53
2023-08-17T03:48:10.377Z,98063.81
2023-08-17T03:50:37.184Z,98061.19
2023-08-17T03:53:04.146Z,98061.13
2023-08-17T03:55:31.059Z,98064.38
2023-08-17T03:57:57.796Z,98066.66
2023-08-17T04:00:24.814Z,98066.66
2023-08-17T04:02:52.026Z,98069.50
2023-08-17T04:05:18.847Z,98067.69
2023-08-17T04:07:45.610Z,98067.00
2023-08-17T04:10:12.399Z,98064.25
2023-08-17T04:12:39.243Z,98060.94
2023-08-17T04:15:06.699Z,98068.28
2023-08-17T04:17:33.523Z,98062.13
2023-08-17T04:20:00.349Z,98059.66
2023-08-17T04:22:27.113Z,98055.41
2023-08-17T04:24:53.918Z,98055.19
2023-08-17T04:27:20.705Z,98060.41
2023-08-17T04:29:47.498Z,98062.56
2023-08-17T04:32:17.583Z,98059.63
2023-08-17T04:34:46.004Z,98049.44
2023-08-17T04:37:12.882Z,98045.03
2023-08-17T04:39:39.669Z,98046.03
2023-08-17T04:42:06.939Z,98052.44
2023-08-17T04:44:34.443Z,98048.00
2023-08-17T04:47:01.344Z,98052.06
2023-08-17T04:49:28.096Z,98043.38
2023-08-17T04:51:54.895Z,98035.66
2023-08-17T04:54:21.950Z,98039.78
2023-08-17T04:56:48.791Z,98035.00
2023-08-17T04:59:15.611Z,98029.88
2023-08-17T05:01:42.864Z,98026.53
2023-08-17T05:04:09.904Z,98030.84
2023-08-17T05:06:38.257Z,98033.13
2023-08-17T05:09:07.217Z,98027.25
2023-08-17T05:11:34.234Z,98037.56
2023-08-17T05:14:01.167Z,98031.47
2023-08-17T05:16:27.921Z,98029.19
2023-08-17T05:18:54.933Z,98032.03
2023-08-17T05:21:21.856Z,98025.88
2023-08-17T05:23:48.998Z,98028.34
2023-08-17T05:26:16.705Z,98022.34
2023-08-17T05:28:44.560Z,98015.59
2023-08-17T05:31:11.363Z,98020.66
2023-08-17T05:33:38.206Z,98017.28
2023-08-17T05:36:05.205Z,98016.78
2023-08-17T05:38:32.324Z,98018.09
2023-08-17T05:40:59.407Z,98014.38
2023-08-17T05:43:26.416Z,98015.09
2023-08-17T05:45:53.280Z,98015.63
2023-08-17T05:48:20.546Z,98011.31
2023-08-17T05:50:48.263Z,98011.63
2023-08-17T05:53:15.060Z,98012.09
2023-08-17T05:55:41.925Z,98018.75
2023-08-17T05:58:08.697Z,98018.53
2023-08-17T06:00:36.505Z,98025.09
2023-08-17T06:03:03.627Z,98023.38
2023-08-17T06:05:31.435Z,98027.47
2023-08-17T06:07:58.411Z,98029.16
2023-08-17T06:10:28.498Z,98020.97
2023-08-17T06:12:56.116Z,98020.72
2023-08-17T06:15:23.535Z,98027.97
2023-08-17T06:17:53.688Z,98025.84
2023-08-17T06:20:20.703Z,98024.81
2023-08-17T06:22:48.432Z,98030.28
2023-08-17T06:25:15.521Z,98021.81
2023-08-17T06:27:43.058Z,98012.72
2023-08-17T06:30:10.574Z,98005.72
2023-08-17T06:32:37.692Z,98000.69
2023-08-17T06:35:04.718Z,98002.84
2023-08-17T06:37:31.624Z,98000.56
2023-08-17T06:39:58.455Z,98005.97
2023-08-17T06:42:25.226Z,98000.31
2023-08-17T06:44:52.442Z,97992.66
2023-08-17T06:47:19.264Z,97986.44
2023-08-17T06:49:46.081Z,97990.41
2023-08-17T06:52:12.893Z,97993.34
2023-08-17T06:54:40.102Z,97990.31
2023-08-17T06:57:06.914Z,97988.34
2023-08-17T06:59:36.932Z,97984.88
2023-08-17T07:02:03.874Z,97984.34
2023-08-17T07:04:31.754Z,97991.47
2023-08-17T07:06:58.638Z,97999.50
2023-08-17T07:09:25.472Z,97996.06
2023-08-17T07:11:52.767Z,97997.78
2023-08-17T07:14:21.818Z,97993.72
2023-08-17T07:16:49.920Z,97994.28
2023-08-17T07:19:16.745Z,98004.84
2023-08-17T07:21:43.610Z,97994.38
2023-08-17T07:24:16.750Z,97991.94
2023-08-17T07:26:44.082Z,97985.03
2023-08-17T07:29:10.877Z,97985.50
2023-08-17T07:31:38.964Z,97986.34
2023-08-17T07:34:06.924Z,97978.16
2023-08-17T07:36:34.170Z,97978.03
2023-08-17T07:39:01.292Z,97976.97
2023-08-17T07:41:28.198Z,97980.38
2023-08-17T07:43:55.077Z,97982.09
2023-08-17T07:46:21.934Z,97981.25
2023-08-17T07:48:48.843Z,97979.34
2023-08-17T07:51:15.979Z,97971.09
2023-08-17T07:53:42.816Z,97974.38
2023-08-17T07:56:09.702Z,97978.56
2023-08-17T07:58:36.492Z,97979.91
2023-08-17T08:01:04.419Z,97979.19
2023-08-17T08:03:32.315Z,97977.13
2023-08-17T08:05:59.446Z,97966.13
2023-08-17T08:08:26.277Z,97976.25
2023-08-17T08:10:54.356Z,97975.38
2023-08-17T08:13:21.294Z,97967.22
2023-08-17T08:15:48.182Z,97963.31
2023-08-17T08:18:15.022Z,97960.44
2023-08-17T08:20:41.985Z,97960.38
2023-08-17T08:23:09.059Z,97957.44
2023-08-17T08:25:36.215Z,97961.41
2023-08-17T08:28:03.062Z,97950.13
2023-08-17T08:30:29.873Z,97954.53
2023-08-17T08:32:59.290Z,97954.34
2023-08-17T08:35:26.193Z,97950.97
2023-08-17T08:37:53.030Z,97949.47
2023-08-17T08:40:19.962Z,97951.13
2023-08-17T08:42:46.728Z,97960.53
2023-08-17T08:45:13.638Z,97952.50
2023-08-17T08:47:40.751Z,97955.84
2023-08-17T08:50:08.581Z,97947.22
2023-08-17T08:52:37.773Z,97950.66
2023-08-17T08:55:10.620Z,97941.53
2023-08-17T08:57:37.488Z,97940.19
2023-08-17T09:00:05.129Z,97935.19
2023-08-17T09:02:32.320Z,97938.97
2023-08-17T09:04:59.125Z,97947.69
2023-08-17T09:07:26.204Z,97934.22
2023-08-17T09:09:53.341Z,97927.94
2023-08-17T09:12:33.649Z,97932.28
2023-08-17T09:15:06.571Z,97926.94
2023-08-17T09:17:35.499Z,97922.28
2023-08-17T09:20:02.560Z,97915.69
2023-08-17T09:22:40.894Z,97913.28
2023-08-17T09:25:08.225Z,97908.94
2023-08-17T09:27:35.500Z,97909.72
2023-08-17T09:30:12.091Z,97921.91
2023-08-17T09:32:58.010Z,97915.97
2023-08-17T09:35:27.180Z,97910.47
2023-08-17T09:37:54.823Z,97901.00
2023-08-17T09:40:22.861Z,97900.97
2023-08-17T09:42:50.085Z,97900.63
2023-08-17T09:45:18.860Z,97900.03
2023-08-17T09:47:45.702Z,97892.94
2023-08-17T09:50:12.627Z,97906.00
2023-08-17T09:52:40.002Z,97898.81
2023-08-17T09:55:08.583Z,97895.22
2023-08-17T09:57:36.813Z,97892.13
2023-08-17T10:00:03.837Z,97895.69
2023-08-17T10:02:30.764Z,97894.69
2023-08-17T10:04:58.870Z,97900.09
2023-08-17T10:07:33.249Z,97884.56
2023-08-17T10:10:05.217Z,97884.25
2023-08-17T10:12:36.365Z,97872.28
2023-08-17T10:15:09.892Z,97877.50
2023-08-17T10:17:45.487Z,97876.84
2023-08-17T10:20:12.318Z,97876.41
2023-08-17T10:23:18.708Z,97874.88
2023-08-17T10:25:51.252Z,97866.97
2023-08-17T10:28:18.533Z,97871.53
2023-08-17T10:30:45.417Z,97860.47
2023-08-17T10:33:12.343Z,97861.38
2023-08-17T10:35:39.282Z,97857.00
2023-08-17T10:38:10.682Z,97858.47
2023-08-17T10:40:38.973Z,97854.66
2023-08-17T10:43:05.834Z,97858.13
2023-08-17T10:45:38.022Z,97860.69
2023-08-17T10:48:09.609Z,97855.22
2023-08-17T10:53:13.476Z,97852.59
2023-08-17T10:55:42.114Z,97846.34
2023-08-17T10:58:16.085Z,97855.94
2023-08-17T11:00:45.360Z,97852.88
2023-08-17T11:03:21.189Z,97851.94
2023-08-17T11:05:54.913Z,97852.53
2023-08-17T11:08:33.236Z,97852.34
2023-08-17T11:11:03.414Z,97850.06
2023-08-17T11:13:32.077Z,97852.66
2023-08-17T11:16:03.420Z,97846.50
2023-08-17T11:18:32.053Z,97846.63
2023-08-17T11:20:58.947Z,97840.91
2023-08-17T11:23:26.480Z,97849.47
2023-08-17T11:25:56.361Z,97830.88
2023-08-17T11:28:23.730Z,97834.63
2023-08-17T11:31:18.058Z,97833.09
2023-08-17T11:33:46.272Z,97838.97
2023-08-17T11:36:13.199Z,97831.97
2023-08-17T11:38:42.104Z,97835.66
2023-08-17T11:41:18.396Z,97828.28
2023-08-17T11:43:45.962Z,97834.19
2023-08-17T11:46:13.189Z,97836.38
2023-08-17T11:48:40.144Z,97829.03
2023-08-17T11:51:07.089Z,97828.50
2023-08-17T11:53:37.315Z,97825.34
2023-08-17T11:56:07.082Z,97811.06
2023-08-17T11:58:42.306Z,97812.97
2023-08-17T12:01:13.236Z,97808.75
2023-08-17T12:03:41.241Z,97808.34
2023-08-17T12:06:08.403Z,97802.28
2023-08-17T12:08:35.797Z,97799.88
2023-08-17T12:11:04.231Z,97794.53
2023-08-17T12:13:33.392Z,97788.47
2023-08-17T12:16:00.384Z,97794.91
2023-08-17T12:18:27.291Z,97789.53
2023-08-17T12:20:54.878Z,97789.75
2023-08-17T12:23:21.707Z,97791.19
2023-08-17T12:25:56.537Z,97783.88
2023-08-17T12:28:24.715Z,97776.88
2023-08-17T12:30:59.585Z,97775.72
2023-08-17T12:33:26.449Z,97767.22
2023-08-17T12:35:53.393Z,97759.19
2023-08-17T12:38:20.573Z,97766.19
2023-08-17T12:40:47.658Z,97764.00
2023-08-17T12:43:16.012Z,97769.78
2023-08-17T12:45:43.011Z,97768.34
2023-08-17T12:48:09.867Z,97760.06
2023-08-17T12:50:43.494Z,97759.75
2023-08-17T12:53:11.170Z,97772.53
2023-08-17T12:55:38.124Z,97767.03
2023-08-17T12:58:06.136Z,97761.81
2023-08-17T13:00:33.144Z,97746.69
2023-08-17T13:03:00.061Z,97742.63
2023-08-17T13:05:27.378Z,97743.44
2023-08-17T13:07:54.254Z,97748.59
2023-08-17T13:10:21.186Z,97750.72
2023-08-17T13:12:48.581Z,97752.06
2023-08-17T13:15:15.698Z,97756.81
2023-08-17T13:17:42.926Z,97777.19
2023-08-17T13:20:11.640Z,97770.59
2023-08-17T13:22:38.644Z,97789.41
2023-08-17T13:25:06.037Z,97797.75
2023-08-17T13:27:33.835Z,97796.16
2023-08-17T13:30:00.830Z,97818.91
2023-08-17T13:32:28.760Z,97821.72
2023-08-17T13:34:55.874Z,97834.47
2023-08-17T13:37:22.971Z,97826.75
2023-08-17T13:39:49.792Z,97827.91
2023-08-17T13:42:16.922Z,97832.78
2023-08-17T13:44:43.730Z,97825.75
2023-08-17T13:47:10.547Z,97820.94
2023-08-17T13:49:37.336Z,97800.66
2023-08-17T13:52:04.671Z,97803.88
2023-08-17T13:54:31.458Z,97803.41
2023-08-17T13:56:58.233Z,97790.97
2023-08-17T13:59:25.122Z,97796.28
2023-08-17T14:01:52.278Z,97811.28
2023-08-17T14:04:19.914Z,97825.25
2023-08-17T14:06:46.816Z,97834.94
2023-08-17T14:09:13.569Z,97841.03
2023-08-17T14:11:40.558Z,97863.59
2023-08-17T14:14:08.661Z,97873.16
2023-08-17T14:16:37.701Z,97879.44
2023-08-17T14:19:05.928Z,97894.91
2023-08-17T14:21:32.859Z,97897.38
2023-08-17T14:23:59.700Z,97897.56
2023-08-17T14:26:26.499Z,97895.38
2023-08-17T14:28:53.659Z,97884.25
2023-08-17T14:31:21.623Z,97871.63
2023-08-17T14:33:49.181Z,97854.97
2023-08-17T14:38:46.294Z,97841.53
2023-08-17T14:41:13.640Z,97845.31
2023-08-17T14:43:40.784Z,97841.41
2023-08-17T14:46:07.770Z,97853.72
2023-08-17T14:48:34.725Z,97863.75
2023-08-17T14:51:03.275Z,97860.69
2023-08-17T14:53:30.394Z,97853.97
2023-08-17T14:55:57.995Z,97857.75
2023-08-17T14:58:25.063Z,97876.63
2023-08-17T15:00:51.873Z,97882.44
2023-08-17T15:03:24.424Z,97889.97
2023-08-17T15:05:51.961Z,97895.13
2023-08-17T15:08:19.095Z,97888.69
2023-08-17T15:10:48.945Z,97899.78
2023-08-17T15:13:16.580Z,97890.00
2023-08-17T15:15:45.660Z,97879.19
2023-08-17T15:18:12.829Z,97872.44
2023-08-17T15:20:39.956Z,97853.03
2023-08-17T15:23:07.484Z,97850.59
2023-08-17T15:25:34.789Z,97857.38
2023-08-17T15:28:01.975Z,97856.22
2023-08-17T15:30:31.489Z,97861.09
2023-08-17T15:32:58.646Z,97872.59
2023-08-17T15:35:25.815Z,97859.50
2023-08-17T15:37:53.259Z,97853.38
2023-08-17T15:40:20.902Z,97863.09
2023-08-17T15:42:48.744Z,97854.84
2023-08-17T15:45:15.669Z,97861.47
2023-08-17T15:47:42.942Z,97859.50
2023-08-17T15:50:11.401Z,97858.31
2023-08-17T15:52:38.339Z,97850.16
2023-08-17T15:55:05.641Z,97845.47
2023-08-17T15:57:32.444Z,97841.72
2023-08-17T15:59:59.319Z,97837.91
2023-08-17T16:02:29.596Z,97842.50
2023-08-17T16:04:56.481Z,97840.50
2023-08-17T16:07:23.423Z,97838.16
2023-08-17T16:09:50.454Z,97853.97
2023-08-17T16:12:17.488Z,97863.84
2023-08-17T16:14:49.527Z,97870.38
2023-08-17T16:17:17.206Z,97866.72
2023-08-17T16:19:44.230Z,97862.97
2023-08-17T16:22:16.916Z,97871.88
2023-08-17T16:24:47.047Z,97868.66
2023-08-17T16:27:13.897Z,97870.59
2023-08-17T16:29:40.782Z,97884.22
2023-08-17T16:32:09.941Z,97887.81
2023-08-17T16:34:37.277Z,97898.53
2023-08-17T16:37:07.992Z,97890.66
2023-08-17T16:39:37.508Z,97892.28
2023-08-17T16:42:04.332Z,97891.94
2023-08-17T16:44:31.895Z,97879.19
2023-08-17T16:47:01.309Z,97884.72
2023-08-17T16:49:30.264Z,97878.31
2023-08-17T16:51:59.282Z,97862.28
2023-08-17T16:54:26.309Z,97864.66
2023-08-17T16:56:54.153Z,97859.69
2023-08-17T16:59:22.082Z,97867.78
2023-08-17T17:01:49.075Z,97870.94
2023-08-17T17:04:22.365Z,97879.16
2023-08-17T17:06:49.341Z,97892.91
2023-08-17T17:09:16.610Z,97901.16
2023-08-17T17:11:43.853Z,97901.50
2023-08-17T17:14:11.154Z,97895.16
2023-08-17T17:16:38.123Z,97879.66
2023-08-17T17:19:05.300Z,97879.63
2023-08-17T17:21:32.223Z,97879.03
2023-08-17T17:23:59.307Z,97873.59
2023-08-17T17:26:26.511Z,97873.13
2023-08-17T17:28:53.360Z,97874.06
2023-08-17T17:31:20.420Z,97886.97
2023-08-17T17:33:47.354Z,97882.53
2023-08-17T17:36:14.211Z,97897.22
2023-08-17T17:38:41.672Z,97895.38
2023-08-17T17:41:08.655Z,97897.69
2023-08-17T17:43:35.477Z,97915.91
2023-08-17T17:46:02.253Z,97924.53
2023-08-17T17:48:29.231Z,97939.22
2023-08-17T17:50:56.026Z,97943.44
2023-08-17T17:53:23.265Z,97945.91
2023-08-17T17:55:50.045Z,97956.53
2023-08-17T17:58:16.895Z,97958.59
2023-08-17T18:00:43.868Z,97959.19
2023-08-17T18:03:14.894Z,97953.22
2023-08-17T18:05:43.022Z,97951.75
2023-08-17T18:08:11.429Z,97949.41
2023-08-17T18:10:40.128Z,97950.34
2023-08-17T18:13:08.626Z,97947.75
2023-08-17T18:15:36.262Z,97948.81
2023-08-17T18:18:04.551Z,97956.69
2023-08-17T18:20:32.108Z,97956.84
2023-08-17T18:22:59.378Z,97960.91
2023-08-17T18:25:26.595Z,97970.59
2023-08-17T18:27:53.678Z,97980.59
2023-08-17T18:30:20.647Z,97981.75
2023-08-17T18:32:47.995Z,97972.84
2023-08-17T18:35:15.039Z,97990.66
2023-08-17T18:37:43.055Z,97982.84
2023-08-17T18:40:10.992Z,97981.59
2023-08-17T18:42:37.930Z,97989.22
2023-08-17T18:45:05.099Z,97989.28
2023-08-17T18:47:31.967Z,97994.81
2023-08-17T18:49:58.861Z,97994.94
2023-08-17T18:52:27.961Z,97994.66
2023-08-17T18:55:12.381Z,97996.91
2023-08-17T18:57:39.865Z,97987.88
2023-08-17T19:00:09.147Z,97995.41
2023-08-17T19:02:36.397Z,97991.28
2023-08-17T19:05:03.879Z,97998.91
2023-08-17T19:07:30.984Z,97992.09
2023-08-17T19:09:57.896Z,97982.56
2023-08-17T19:12:24.906Z,97981.63
2023-08-17T19:14:52.215Z,97980.38
2023-08-17T19:17:19.251Z,97984.69
2023-08-17T19:19:46.463Z,97987.28
2023-08-17T19:22:15.626Z,97986.53
2023-08-17T19:24:42.701Z,97985.44
2023-08-17T19:27:09.607Z,97980.81
2023-08-17T19:29:41.275Z,97978.81
2023-08-17T19:32:35.297Z,97983.06
2023-08-17T19:35:09.944Z,97976.16
2023-08-17T19:37:37.611Z,97967.00
2023-08-17T19:40:06.981Z,97973.38
2023-08-17T19:42:33.828Z,97973.16
2023-08-17T19:45:02.092Z,97973.31
2023-08-17T19:47:30.024Z,97980.22
2023-08-17T19:49:57.207Z,97983.34
2023-08-17T19:52:24.235Z,97980.94
2023-08-17T19:54:53.236Z,97977.06
2023-08-17T19:57:21.472Z,97970.00
2023-08-17T19:59:48.658Z,97961.22
2023-08-17T20:02:15.977Z,97952.44
2023-08-17T20:04:43.141Z,97958.34
2023-08-17T20:07:10.403Z,97955.94
2023-08-17T20:09:37.304Z,97959.22
2023-08-17T20:12:04.492Z,97959.97
2023-08-17T20:14:31.662Z,97959.72
2023-08-17T20:16:58.630Z,97980.28
2023-08-17T20:19:25.530Z,97983.69
2023-08-17T20:21:52.392Z,97984.03
2023-08-17T20:24:19.233Z,98004.00
2023-08-17T20:26:47.188Z,98000.66
2023-08-17T20:29:14.559Z,98009.94
2023-08-17T20:31:41.516Z,98018.19
2023-08-17T20:34:08.471Z,98025.84
2023-08-17T20:36:35.395Z,98020.53
2023-08-17T20:39:10.378Z,98017.38
2023-08-17T20:41:37.615Z,98010.34
2023-08-17T20:44:04.732Z,98011.75
2023-08-17T20:46:31.622Z,98014.56
2023-08-17T20:48:58.594Z,98012.06
2023-08-17T20:51:25.996Z,98017.84
2023-08-17T20:53:53.596Z,98019.63
2023-08-17T20:56:21.000Z,98023.03
2023-08-17T20:58:48.002Z,98015.25
2023-08-17T21:01:17.431Z,98012.44
2023-08-17T21:03:49.986Z,98014.91
2023-08-17T21:06:16.981Z,98010.31
2023-08-17T21:08:44.651Z,98007.19
2023-08-17T21:11:12.156Z,98013.34
2023-08-17T21:13:39.509Z,98015.63
2023-08-17T21:16:07.021Z,98010.03
2023-08-17T21:18:34.121Z,98014.03
2023-08-17T21:21:01.050Z,98014.03
2023-08-17T21:23:31.693Z,98005.34
2023-08-17T21:26:00.127Z,98004.47
2023-08-17T21:28:27.117Z,98013.19
2023-08-17T21:31:00.186Z,98016.69
2023-08-17T21:33:27.078Z,98009.75
2023-08-17T21:35:57.889Z,98007.28
2023-08-17T21:38:24.744Z,98009.34
2023-08-17T21:41:01.045Z,98002.78
2023-08-17T21:43:30.131Z,97999.50
2023-08-17T21:45:57.606Z,97994.16
2023-08-17T21:48:24.845Z,97997.16
2023-08-17T21:50:51.706Z,97981.91
2023-08-17T21:53:21.855Z,97984.84
2023-08-17T21:55:49.385Z,97990.72
2023-08-17T21:58:18.747Z,97988.78
2023-08-17T22:00:46.323Z,97985.53
2023-08-17T22:03:13.796Z,97984.13
2023-08-17T22:05:40.781Z,97978.78
2023-08-17T22:08:07.696Z,97977.66
2023-08-17T22:10:34.544Z,97975.41
2023-08-17T22:13:01.568Z,97972.38
2023-08-17T22:15:28.708Z,97974.44
2023-08-17T22:17:55.726Z,97971.03
2023-08-17T22:20:22.592Z,97973.34
2023-08-17T22:22:49.633Z,97969.38
2023-08-17T22:25:16.617Z,97962.16
2023-08-17T22:27:43.756Z,97962.47
2023-08-17T22:30:11.385Z,97959.78
2023-08-17T22:32:38.211Z,97955.78
2023-08-17T22:35:06.032Z,97950.00
2023-08-17T22:37:32.816Z,97948.41
2023-08-17T22:39:59.633Z,97942.75
2023-08-17T22:42:26.745Z,97938.97
2023-08-17T22:44:53.564Z,97943.88
2023-08-17T22:47:20.368Z,97950.03
2023-08-17T22:49:47.274Z,97938.44
2023-08-17T22:52:14.010Z,97941.84
2023-08-17T22:54:40.876Z,97942.81
2023-08-17T22:57:07.931Z,97938.66
2023-08-17T22:59:34.722Z,97934.75
2023-08-17T23:02:02.154Z,97931.41
2023-08-17T23:04:29.391Z,97929.16
2023-08-17T23:06:56.384Z,97928.13
2023-08-17T23:09:23.512Z,97919.91
2023-08-17T23:11:50.357Z,97924.34
2023-08-17T23:14:17.158Z,97914.56
2023-08-17T23:16:44.080Z,97905.53
2023-08-17T23:19:10.832Z,97911.59
2023-08-17T23:21:37.679Z,97901.75
2023-08-17T23:24:05.223Z,97899.78
2023-08-17T23:26:32.600Z,97899.34
2023-08-17T23:29:01.959Z,97901.34
2023-08-17T23:31:28.750Z,97904.84
2023-08-17T23:33:55.724Z,97903.94
2023-08-17T23:36:22.824Z,97902.69
2023-08-17T23:38:49.774Z,97909.81
2023-08-17T23:41:16.716Z,97913.81
2023-08-17T23:43:43.632Z,97914.47
2023-08-17T23:46:10.479Z,97923.75
2023-08-17T23:48:37.445Z,97931.22
2023-08-17T23:51:04.245Z,97930.78
2023-08-17T23:53:31.265Z,97934.25
2023-08-17T23:55:58.284Z,97940.22
2023-08-17T23:58:25.091Z,97944.78
